sensor_id;sensor_type;location;lat;lon;timestamp;temperature;humidity
67641;SHT31;54434;50.096;20.082;2023-02-07T00:02:24;-7.26;75.39
67641;SHT31;54434;50.096;20.082;2023-02-07T00:05:01;-7.28;75.30
67641;SHT31;54434;50.096;20.082;2023-02-07T00:07:38;-7.28;75.32
67641;SHT31;54434;50.096;20.082;2023-02-07T00:10:16;-7.22;75.24
67641;SHT31;54434;50.096;20.082;2023-02-07T00:12:53;-7.17;75.08
67641;SHT31;54434;50.096;20.082;2023-02-07T00:15:29;-7.17;75.04
67641;SHT31;54434;50.096;20.082;2023-02-07T00:18:06;-7.16;75.06
67641;SHT31;54434;50.096;20.082;2023-02-07T00:20:42;-7.24;74.82
67641;SHT31;54434;50.096;20.082;2023-02-07T00:23:29;-7.32;75.13
67641;SHT31;54434;50.096;20.082;2023-02-07T00:26:06;-7.29;75.28
67641;SHT31;54434;50.096;20.082;2023-02-07T00:28:45;-7.25;75.14
67641;SHT31;54434;50.096;20.082;2023-02-07T00:31:25;-7.34;75.11
67641;SHT31;54434;50.096;20.082;2023-02-07T00:34:06;-7.33;75.29
67641;SHT31;54434;50.096;20.082;2023-02-07T00:36:44;-7.33;75.23
67641;SHT31;54434;50.096;20.082;2023-02-07T00:39:20;-7.28;75.37
67641;SHT31;54434;50.096;20.082;2023-02-07T00:41:56;-7.27;75.35
67641;SHT31;54434;50.096;20.082;2023-02-07T00:44:33;-7.33;75.12
67641;SHT31;54434;50.096;20.082;2023-02-07T00:47:10;-7.37;75.25
67641;SHT31;54434;50.096;20.082;2023-02-07T00:49:47;-7.34;75.18
67641;SHT31;54434;50.096;20.082;2023-02-07T00:52:24;-7.30;75.14
67641;SHT31;54434;50.096;20.082;2023-02-07T00:55:00;-7.36;74.87
67641;SHT31;54434;50.096;20.082;2023-02-07T00:57:37;-7.43;75.23
67641;SHT31;54434;50.096;20.082;2023-02-07T01:00:14;-7.44;75.61
67641;SHT31;54434;50.096;20.082;2023-02-07T01:02:52;-7.42;75.60
67641;SHT31;54434;50.096;20.082;2023-02-07T01:05:29;-7.43;75.52
67641;SHT31;54434;50.096;20.082;2023-02-07T01:08:07;-7.42;75.51
67641;SHT31;54434;50.096;20.082;2023-02-07T01:10:44;-7.44;75.50
67641;SHT31;54434;50.096;20.082;2023-02-07T01:13:21;-7.45;75.47
67641;SHT31;54434;50.096;20.082;2023-02-07T01:15:58;-7.54;75.36
67641;SHT31;54434;50.096;20.082;2023-02-07T01:18:35;-7.61;75.62
67641;SHT31;54434;50.096;20.082;2023-02-07T01:21:16;-7.62;75.69
67641;SHT31;54434;50.096;20.082;2023-02-07T01:23:54;-7.67;75.83
67641;SHT31;54434;50.096;20.082;2023-02-07T01:26:31;-7.69;75.82
67641;SHT31;54434;50.096;20.082;2023-02-07T01:29:08;-7.74;75.82
67641;SHT31;54434;50.096;20.082;2023-02-07T01:31:47;-7.79;75.81
67641;SHT31;54434;50.096;20.082;2023-02-07T01:34:24;-7.86;75.84
67641;SHT31;54434;50.096;20.082;2023-02-07T01:37:00;-7.92;76.16
67641;SHT31;54434;50.096;20.082;2023-02-07T01:39:38;-7.97;76.23
67641;SHT31;54434;50.096;20.082;2023-02-07T01:42:15;-8.02;76.27
67641;SHT31;54434;50.096;20.082;2023-02-07T01:45:15;-8.07;76.42
67641;SHT31;54434;50.096;20.082;2023-02-07T01:48:01;-8.14;76.73
67641;SHT31;54434;50.096;20.082;2023-02-07T01:50:45;-8.13;76.88
67641;SHT31;54434;50.096;20.082;2023-02-07T01:53:24;-8.11;76.88
67641;SHT31;54434;50.096;20.082;2023-02-07T01:56:06;-8.13;76.93
67641;SHT31;54434;50.096;20.082;2023-02-07T01:59:03;-8.10;77.14
67641;SHT31;54434;50.096;20.082;2023-02-07T02:01:43;-8.01;77.12
67641;SHT31;54434;50.096;20.082;2023-02-07T02:04:21;-7.90;76.98
67641;SHT31;54434;50.096;20.082;2023-02-07T02:06:57;-7.78;76.77
67641;SHT31;54434;50.096;20.082;2023-02-07T02:09:34;-7.72;76.66
67641;SHT31;54434;50.096;20.082;2023-02-07T02:12:23;-7.72;76.57
67641;SHT31;54434;50.096;20.082;2023-02-07T02:15:29;-7.64;76.46
67641;SHT31;54434;50.096;20.082;2023-02-07T02:22:21;-7.57;76.11
67641;SHT31;54434;50.096;20.082;2023-02-07T02:25:45;-7.60;76.08
67641;SHT31;54434;50.096;20.082;2023-02-07T02:29:37;-7.57;76.09
67641;SHT31;54434;50.096;20.082;2023-02-07T02:33:17;-7.50;75.83
67641;SHT31;54434;50.096;20.082;2023-02-07T02:36:09;-7.46;75.83
67641;SHT31;54434;50.096;20.082;2023-02-07T02:39:05;-7.41;75.68
67641;SHT31;54434;50.096;20.082;2023-02-07T02:41:54;-7.42;75.47
67641;SHT31;54434;50.096;20.082;2023-02-07T02:44:42;-7.47;75.40
67641;SHT31;54434;50.096;20.082;2023-02-07T02:47:24;-7.56;75.34
67641;SHT31;54434;50.096;20.082;2023-02-07T02:50:04;-7.63;75.41
67641;SHT31;54434;50.096;20.082;2023-02-07T02:52:46;-7.64;75.47
67641;SHT31;54434;50.096;20.082;2023-02-07T02:55:39;-7.64;75.36
67641;SHT31;54434;50.096;20.082;2023-02-07T02:58:59;-7.63;75.39
67641;SHT31;54434;50.096;20.082;2023-02-07T03:01:59;-7.69;75.41
67641;SHT31;54434;50.096;20.082;2023-02-07T03:04:58;-7.66;75.45
67641;SHT31;54434;50.096;20.082;2023-02-07T03:07:58;-7.70;75.28
67641;SHT31;54434;50.096;20.082;2023-02-07T03:10:49;-7.66;75.29
67641;SHT31;54434;50.096;20.082;2023-02-07T03:13:37;-7.62;75.19
67641;SHT31;54434;50.096;20.082;2023-02-07T03:16:32;-7.59;75.09
67641;SHT31;54434;50.096;20.082;2023-02-07T03:19:19;-7.63;75.05
67641;SHT31;54434;50.096;20.082;2023-02-07T03:22:01;-7.69;75.16
67641;SHT31;54434;50.096;20.082;2023-02-07T03:24:48;-7.70;75.42
67641;SHT31;54434;50.096;20.082;2023-02-07T03:27:31;-7.69;75.47
67641;SHT31;54434;50.096;20.082;2023-02-07T03:30:12;-7.68;75.50
67641;SHT31;54434;50.096;20.082;2023-02-07T03:32:55;-7.69;75.63
67641;SHT31;54434;50.096;20.082;2023-02-07T03:35:43;-7.63;75.73
67641;SHT31;54434;50.096;20.082;2023-02-07T03:38:29;-7.59;75.55
67641;SHT31;54434;50.096;20.082;2023-02-07T03:41:08;-7.60;75.22
67641;SHT31;54434;50.096;20.082;2023-02-07T03:43:52;-7.68;75.26
67641;SHT31;54434;50.096;20.082;2023-02-07T03:46:38;-7.66;75.48
67641;SHT31;54434;50.096;20.082;2023-02-07T03:49:15;-7.60;75.45
67641;SHT31;54434;50.096;20.082;2023-02-07T03:51:52;-7.61;75.46
67641;SHT31;54434;50.096;20.082;2023-02-07T03:54:28;-7.61;75.48
67641;SHT31;54434;50.096;20.082;2023-02-07T03:57:05;-7.55;75.47
67641;SHT31;54434;50.096;20.082;2023-02-07T03:59:41;-7.54;75.17
67641;SHT31;54434;50.096;20.082;2023-02-07T04:02:17;-7.57;75.12
67641;SHT31;54434;50.096;20.082;2023-02-07T04:04:54;-7.57;75.11
67641;SHT31;54434;50.096;20.082;2023-02-07T04:07:30;-7.58;75.03
67641;SHT31;54434;50.096;20.082;2023-02-07T04:10:08;-7.58;74.95
67641;SHT31;54434;50.096;20.082;2023-02-07T04:12:45;-7.67;74.73
67641;SHT31;54434;50.096;20.082;2023-02-07T04:15:22;-7.77;74.77
67641;SHT31;54434;50.096;20.082;2023-02-07T04:17:58;-7.79;74.92
67641;SHT31;54434;50.096;20.082;2023-02-07T04:20:35;-7.79;74.90
67641;SHT31;54434;50.096;20.082;2023-02-07T04:23:11;-7.78;74.86
67641;SHT31;54434;50.096;20.082;2023-02-07T04:25:48;-7.82;74.76
67641;SHT31;54434;50.096;20.082;2023-02-07T04:28:24;-7.88;74.77
67641;SHT31;54434;50.096;20.082;2023-02-07T04:31:01;-7.98;74.89
67641;SHT31;54434;50.096;20.082;2023-02-07T04:33:38;-8.05;75.23
67641;SHT31;54434;50.096;20.082;2023-02-07T04:36:14;-8.11;75.20
67641;SHT31;54434;50.096;20.082;2023-02-07T04:38:51;-8.19;75.23
67641;SHT31;54434;50.096;20.082;2023-02-07T04:41:27;-8.25;75.33
67641;SHT31;54434;50.096;20.082;2023-02-07T04:44:04;-8.37;75.59
67641;SHT31;54434;50.096;20.082;2023-02-07T04:46:40;-8.40;75.93
67641;SHT31;54434;50.096;20.082;2023-02-07T04:49:17;-8.38;76.11
67641;SHT31;54434;50.096;20.082;2023-02-07T04:51:53;-8.39;76.01
67641;SHT31;54434;50.096;20.082;2023-02-07T04:54:30;-8.45;75.90
67641;SHT31;54434;50.096;20.082;2023-02-07T04:57:06;-8.50;76.14
67641;SHT31;54434;50.096;20.082;2023-02-07T04:59:42;-8.47;76.47
67641;SHT31;54434;50.096;20.082;2023-02-07T05:02:19;-8.49;76.54
67641;SHT31;54434;50.096;20.082;2023-02-07T05:04:55;-8.46;76.93
67641;SHT31;54434;50.096;20.082;2023-02-07T05:07:31;-8.36;77.28
67641;SHT31;54434;50.096;20.082;2023-02-07T05:10:08;-8.25;77.61
67641;SHT31;54434;50.096;20.082;2023-02-07T05:12:45;-8.17;78.10
67641;SHT31;54434;50.096;20.082;2023-02-07T05:15:22;-8.07;78.33
67641;SHT31;54434;50.096;20.082;2023-02-07T05:17:58;-7.97;78.52
67641;SHT31;54434;50.096;20.082;2023-02-07T05:20:35;-7.87;78.57
67641;SHT31;54434;50.096;20.082;2023-02-07T05:23:11;-7.78;78.64
67641;SHT31;54434;50.096;20.082;2023-02-07T05:25:49;-7.69;78.78
67641;SHT31;54434;50.096;20.082;2023-02-07T05:28:25;-7.62;78.80
67641;SHT31;54434;50.096;20.082;2023-02-07T05:31:02;-7.56;78.80
67641;SHT31;54434;50.096;20.082;2023-02-07T05:33:38;-7.49;78.78
67641;SHT31;54434;50.096;20.082;2023-02-07T05:36:15;-7.43;78.71
67641;SHT31;54434;50.096;20.082;2023-02-07T05:38:51;-7.38;78.74
67641;SHT31;54434;50.096;20.082;2023-02-07T05:41:27;-7.32;78.72
67641;SHT31;54434;50.096;20.082;2023-02-07T05:44:05;-7.26;78.72
67641;SHT31;54434;50.096;20.082;2023-02-07T05:46:42;-7.20;78.78
67641;SHT31;54434;50.096;20.082;2023-02-07T05:49:18;-7.15;78.68
67641;SHT31;54434;50.096;20.082;2023-02-07T05:51:54;-7.09;78.61
67641;SHT31;54434;50.096;20.082;2023-02-07T05:54:31;-7.04;78.59
67641;SHT31;54434;50.096;20.082;2023-02-07T05:57:08;-7.00;78.54
67641;SHT31;54434;50.096;20.082;2023-02-07T05:59:44;-6.96;78.47
67641;SHT31;54434;50.096;20.082;2023-02-07T06:02:20;-6.95;78.39
67641;SHT31;54434;50.096;20.082;2023-02-07T06:04:57;-6.91;78.38
67641;SHT31;54434;50.096;20.082;2023-02-07T06:07:34;-6.87;78.40
67641;SHT31;54434;50.096;20.082;2023-02-07T06:10:11;-6.83;78.43
67641;SHT31;54434;50.096;20.082;2023-02-07T06:12:48;-6.79;78.46
67641;SHT31;54434;50.096;20.082;2023-02-07T06:15:25;-6.74;78.45
67641;SHT31;54434;50.096;20.082;2023-02-07T06:18:01;-6.70;78.36
67641;SHT31;54434;50.096;20.082;2023-02-07T06:20:38;-6.65;78.38
67641;SHT31;54434;50.096;20.082;2023-02-07T06:23:15;-6.58;78.37
67641;SHT31;54434;50.096;20.082;2023-02-07T06:25:53;-6.56;78.35
67641;SHT31;54434;50.096;20.082;2023-02-07T06:28:30;-6.50;78.37
67641;SHT31;54434;50.096;20.082;2023-02-07T06:31:06;-6.48;78.23
67641;SHT31;54434;50.096;20.082;2023-02-07T06:33:43;-6.48;78.22
67641;SHT31;54434;50.096;20.082;2023-02-07T06:36:20;-6.46;78.09
67641;SHT31;54434;50.096;20.082;2023-02-07T06:38:57;-6.39;78.06
67641;SHT31;54434;50.096;20.082;2023-02-07T06:41:34;-6.37;78.03
67641;SHT31;54434;50.096;20.082;2023-02-07T06:44:10;-6.31;77.99
67641;SHT31;54434;50.096;20.082;2023-02-07T06:46:47;-6.27;77.81
67641;SHT31;54434;50.096;20.082;2023-02-07T06:49:23;-6.22;77.86
67641;SHT31;54434;50.096;20.082;2023-02-07T06:52:00;-6.18;77.67
67641;SHT31;54434;50.096;20.082;2023-02-07T06:54:37;-6.18;77.45
67641;SHT31;54434;50.096;20.082;2023-02-07T06:57:13;-6.15;77.52
67641;SHT31;54434;50.096;20.082;2023-02-07T06:59:50;-6.14;77.49
67641;SHT31;54434;50.096;20.082;2023-02-07T07:02:26;-6.12;77.41
67641;SHT31;54434;50.096;20.082;2023-02-07T07:05:03;-6.07;77.49
67641;SHT31;54434;50.096;20.082;2023-02-07T07:07:40;-6.00;77.49
67641;SHT31;54434;50.096;20.082;2023-02-07T07:10:17;-5.99;77.25
67641;SHT31;54434;50.096;20.082;2023-02-07T07:12:54;-5.97;77.44
67641;SHT31;54434;50.096;20.082;2023-02-07T07:15:30;-5.92;77.45
67641;SHT31;54434;50.096;20.082;2023-02-07T07:18:07;-5.89;77.23
67641;SHT31;54434;50.096;20.082;2023-02-07T07:20:44;-5.83;77.25
67641;SHT31;54434;50.096;20.082;2023-02-07T07:23:24;-5.76;77.25
67641;SHT31;54434;50.096;20.082;2023-02-07T07:26:00;-5.69;77.14
67641;SHT31;54434;50.096;20.082;2023-02-07T07:28:37;-5.61;77.19
67641;SHT31;54434;50.096;20.082;2023-02-07T07:31:14;-5.55;77.02
67641;SHT31;54434;50.096;20.082;2023-02-07T07:33:51;-5.52;76.91
67641;SHT31;54434;50.096;20.082;2023-02-07T07:36:28;-5.47;76.83
67641;SHT31;54434;50.096;20.082;2023-02-07T07:39:04;-5.41;76.88
67641;SHT31;54434;50.096;20.082;2023-02-07T07:41:41;-5.33;77.00
67641;SHT31;54434;50.096;20.082;2023-02-07T07:44:21;-5.29;76.85
67641;SHT31;54434;50.096;20.082;2023-02-07T07:46:57;-5.24;76.87
67641;SHT31;54434;50.096;20.082;2023-02-07T07:49:34;-5.16;76.85
67641;SHT31;54434;50.096;20.082;2023-02-07T07:52:10;-5.07;76.80
67641;SHT31;54434;50.096;20.082;2023-02-07T07:54:47;-5.01;76.78
67641;SHT31;54434;50.096;20.082;2023-02-07T07:57:24;-4.95;76.67
67641;SHT31;54434;50.096;20.082;2023-02-07T08:00:00;-4.86;76.76
67641;SHT31;54434;50.096;20.082;2023-02-07T08:02:43;-4.79;76.67
67641;SHT31;54434;50.096;20.082;2023-02-07T08:05:20;-4.72;76.72
67641;SHT31;54434;50.096;20.082;2023-02-07T08:07:57;-4.68;76.55
67641;SHT31;54434;50.096;20.082;2023-02-07T08:10:33;-4.64;76.75
67641;SHT31;54434;50.096;20.082;2023-02-07T08:13:11;-4.64;76.40
67641;SHT31;54434;50.096;20.082;2023-02-07T08:15:49;-4.65;76.57
67641;SHT31;54434;50.096;20.082;2023-02-07T08:18:25;-4.62;76.57
67641;SHT31;54434;50.096;20.082;2023-02-07T08:21:02;-4.59;76.43
67641;SHT31;54434;50.096;20.082;2023-02-07T08:23:40;-4.59;76.36
67641;SHT31;54434;50.096;20.082;2023-02-07T08:26:17;-4.59;76.38
67641;SHT31;54434;50.096;20.082;2023-02-07T08:28:54;-4.56;76.49
67641;SHT31;54434;50.096;20.082;2023-02-07T08:31:30;-4.55;76.55
67641;SHT31;54434;50.096;20.082;2023-02-07T08:34:07;-4.52;76.60
67641;SHT31;54434;50.096;20.082;2023-02-07T08:36:44;-4.49;76.62
67641;SHT31;54434;50.096;20.082;2023-02-07T08:39:21;-4.47;76.70
67641;SHT31;54434;50.096;20.082;2023-02-07T08:41:58;-4.44;76.79
67641;SHT31;54434;50.096;20.082;2023-02-07T08:44:36;-4.40;76.85
67641;SHT31;54434;50.096;20.082;2023-02-07T08:47:12;-4.35;76.98
67641;SHT31;54434;50.096;20.082;2023-02-07T08:49:49;-4.27;77.06
67641;SHT31;54434;50.096;20.082;2023-02-07T08:52:26;-4.20;77.04
67641;SHT31;54434;50.096;20.082;2023-02-07T08:55:03;-4.14;76.91
67641;SHT31;54434;50.096;20.082;2023-02-07T08:57:41;-4.09;76.72
67641;SHT31;54434;50.096;20.082;2023-02-07T09:00:18;-4.04;76.70
67641;SHT31;54434;50.096;20.082;2023-02-07T09:02:55;-3.97;76.63
67641;SHT31;54434;50.096;20.082;2023-02-07T09:05:32;-3.92;76.47
67641;SHT31;54434;50.096;20.082;2023-02-07T09:08:09;-3.89;76.35
67641;SHT31;54434;50.096;20.082;2023-02-07T09:10:47;-3.84;76.40
67641;SHT31;54434;50.096;20.082;2023-02-07T09:13:24;-3.74;76.45
67641;SHT31;54434;50.096;20.082;2023-02-07T09:16:01;-3.65;76.25
67641;SHT31;54434;50.096;20.082;2023-02-07T09:18:38;-3.61;76.10
67641;SHT31;54434;50.096;20.082;2023-02-07T09:21:15;-3.55;76.15
67641;SHT31;54434;50.096;20.082;2023-02-07T09:23:53;-3.47;76.08
67641;SHT31;54434;50.096;20.082;2023-02-07T09:26:29;-3.43;75.92
67641;SHT31;54434;50.096;20.082;2023-02-07T09:29:07;-3.39;75.65
67641;SHT31;54434;50.096;20.082;2023-02-07T09:31:46;-3.41;75.53
67641;SHT31;54434;50.096;20.082;2023-02-07T09:34:23;-3.37;75.61
67641;SHT31;54434;50.096;20.082;2023-02-07T09:37:01;-3.35;75.50
67641;SHT31;54434;50.096;20.082;2023-02-07T09:39:38;-3.33;75.54
67641;SHT31;54434;50.096;20.082;2023-02-07T09:42:21;-3.27;75.65
67641;SHT31;54434;50.096;20.082;2023-02-07T09:45:08;-3.18;75.64
67641;SHT31;54434;50.096;20.082;2023-02-07T09:47:57;-3.17;75.32
67641;SHT31;54434;50.096;20.082;2023-02-07T09:50:42;-3.13;75.16
67641;SHT31;54434;50.096;20.082;2023-02-07T09:53:26;-3.13;75.16
67641;SHT31;54434;50.096;20.082;2023-02-07T09:56:13;-3.07;75.34
67641;SHT31;54434;50.096;20.082;2023-02-07T09:58:56;-3.07;75.18
67641;SHT31;54434;50.096;20.082;2023-02-07T10:01:39;-3.01;75.42
67641;SHT31;54434;50.096;20.082;2023-02-07T10:04:37;-2.99;75.26
67641;SHT31;54434;50.096;20.082;2023-02-07T10:07:22;-2.91;75.51
67641;SHT31;54434;50.096;20.082;2023-02-07T10:09:58;-2.87;75.17
67641;SHT31;54434;50.096;20.082;2023-02-07T10:12:48;-2.85;75.00
67641;SHT31;54434;50.096;20.082;2023-02-07T10:15:55;-2.75;74.98
67641;SHT31;54434;50.096;20.082;2023-02-07T10:18:54;-2.61;74.94
67641;SHT31;54434;50.096;20.082;2023-02-07T10:21:46;-2.45;74.61
67641;SHT31;54434;50.096;20.082;2023-02-07T10:24:49;-2.37;74.46
67641;SHT31;54434;50.096;20.082;2023-02-07T10:27:49;-2.27;74.30
67641;SHT31;54434;50.096;20.082;2023-02-07T10:30:42;-2.32;74.09
67641;SHT31;54434;50.096;20.082;2023-02-07T10:33:27;-2.30;74.20
67641;SHT31;54434;50.096;20.082;2023-02-07T10:36:13;-2.25;74.22
67641;SHT31;54434;50.096;20.082;2023-02-07T10:38:54;-2.18;74.22
67641;SHT31;54434;50.096;20.082;2023-02-07T10:41:41;-2.13;73.95
67641;SHT31;54434;50.096;20.082;2023-02-07T10:44:18;-2.03;74.03
67641;SHT31;54434;50.096;20.082;2023-02-07T10:46:57;-1.97;73.77
67641;SHT31;54434;50.096;20.082;2023-02-07T10:49:38;-1.90;73.78
67641;SHT31;54434;50.096;20.082;2023-02-07T10:52:25;-1.81;73.78
67641;SHT31;54434;50.096;20.082;2023-02-07T10:55:08;-1.79;73.41
67641;SHT31;54434;50.096;20.082;2023-02-07T10:57:54;-1.71;73.38
67641;SHT31;54434;50.096;20.082;2023-02-07T11:00:39;-1.61;73.14
67641;SHT31;54434;50.096;20.082;2023-02-07T11:03:21;-1.55;72.87
67641;SHT31;54434;50.096;20.082;2023-02-07T11:06:00;-1.55;72.66
67641;SHT31;54434;50.096;20.082;2023-02-07T11:08:41;-1.53;72.93
67641;SHT31;54434;50.096;20.082;2023-02-07T11:11:28;-1.45;72.90
67641;SHT31;54434;50.096;20.082;2023-02-07T11:14:09;-1.40;72.75
67641;SHT31;54434;50.096;20.082;2023-02-07T11:16:57;-1.31;72.89
67641;SHT31;54434;50.096;20.082;2023-02-07T11:19:36;-1.17;72.79
67641;SHT31;54434;50.096;20.082;2023-02-07T11:22:16;-1.00;72.74
67641;SHT31;54434;50.096;20.082;2023-02-07T11:25:02;-0.81;72.21
67641;SHT31;54434;50.096;20.082;2023-02-07T11:27:40;-0.69;71.84
67641;SHT31;54434;50.096;20.082;2023-02-07T11:30:19;-0.52;71.46
67641;SHT31;54434;50.096;20.082;2023-02-07T11:32:59;-0.47;71.14
67641;SHT31;54434;50.096;20.082;2023-02-07T11:36:05;-0.37;71.26
67641;SHT31;54434;50.096;20.082;2023-02-07T11:38:56;-0.27;71.26
67641;SHT31;54434;50.096;20.082;2023-02-07T11:41:34;-0.16;71.20
67641;SHT31;54434;50.096;20.082;2023-02-07T11:44:16;-0.08;70.78
67641;SHT31;54434;50.096;20.082;2023-02-07T11:47:03;-0.05;70.66
67641;SHT31;54434;50.096;20.082;2023-02-07T11:49:46;0.01;70.52
67641;SHT31;54434;50.096;20.082;2023-02-07T11:52:26;0.01;70.44
67641;SHT31;54434;50.096;20.082;2023-02-07T11:55:11;0.04;70.45
67641;SHT31;54434;50.096;20.082;2023-02-07T11:57:57;0.07;70.22
67641;SHT31;54434;50.096;20.082;2023-02-07T12:00:40;0.00;70.10
67641;SHT31;54434;50.096;20.082;2023-02-07T12:03:21;0.07;70.30
67641;SHT31;54434;50.096;20.082;2023-02-07T12:06:01;0.09;70.20
67641;SHT31;54434;50.096;20.082;2023-02-07T12:08:46;0.23;70.40
67641;SHT31;54434;50.096;20.082;2023-02-07T12:11:25;0.41;70.32
67641;SHT31;54434;50.096;20.082;2023-02-07T12:14:12;0.57;70.18
67641;SHT31;54434;50.096;20.082;2023-02-07T12:17:00;0.72;70.09
67641;SHT31;54434;50.096;20.082;2023-02-07T12:19:52;0.88;69.93
67641;SHT31;54434;50.096;20.082;2023-02-07T12:22:39;1.00;69.66
67641;SHT31;54434;50.096;20.082;2023-02-07T12:25:37;1.18;69.69
67641;SHT31;54434;50.096;20.082;2023-02-07T12:28:23;1.33;69.54
67641;SHT31;54434;50.096;20.082;2023-02-07T12:31:16;1.40;69.27
67641;SHT31;54434;50.096;20.082;2023-02-07T12:34:02;1.53;69.23
67641;SHT31;54434;50.096;20.082;2023-02-07T12:36:47;1.64;68.78
67641;SHT31;54434;50.096;20.082;2023-02-07T12:39:33;1.79;68.58
67641;SHT31;54434;50.096;20.082;2023-02-07T12:42:26;1.89;67.96
67641;SHT31;54434;50.096;20.082;2023-02-07T12:45:14;1.86;67.68
67641;SHT31;54434;50.096;20.082;2023-02-07T12:48:08;1.87;68.17
67641;SHT31;54434;50.096;20.082;2023-02-07T12:51:02;1.82;67.93
67641;SHT31;54434;50.096;20.082;2023-02-07T12:54:07;1.70;68.14
67641;SHT31;54434;50.096;20.082;2023-02-07T12:57:04;1.58;68.31
67641;SHT31;54434;50.096;20.082;2023-02-07T12:59:59;1.45;68.57
67641;SHT31;54434;50.096;20.082;2023-02-07T13:02:53;1.24;68.91
67641;SHT31;54434;50.096;20.082;2023-02-07T13:05:56;1.07;69.32
67641;SHT31;54434;50.096;20.082;2023-02-07T13:08:47;0.86;69.47
67641;SHT31;54434;50.096;20.082;2023-02-07T13:11:42;0.64;69.73
67641;SHT31;54434;50.096;20.082;2023-02-07T13:14:37;0.53;69.96
67641;SHT31;54434;50.096;20.082;2023-02-07T13:17:42;0.43;70.29
67641;SHT31;54434;50.096;20.082;2023-02-07T13:20:41;0.33;70.53
67641;SHT31;54434;50.096;20.082;2023-02-07T13:23:32;0.21;70.81
67641;SHT31;54434;50.096;20.082;2023-02-07T13:26:14;0.19;70.96
67641;SHT31;54434;50.096;20.082;2023-02-07T13:28:58;0.19;71.10
67641;SHT31;54434;50.096;20.082;2023-02-07T13:31:40;0.18;71.25
67641;SHT31;54434;50.096;20.082;2023-02-07T13:34:22;0.12;71.11
67641;SHT31;54434;50.096;20.082;2023-02-07T13:37:03;-0.00;71.12
67641;SHT31;54434;50.096;20.082;2023-02-07T13:39:54;-0.18;71.57
67641;SHT31;54434;50.096;20.082;2023-02-07T13:42:42;-0.26;71.77
67641;SHT31;54434;50.096;20.082;2023-02-07T13:45:34;-0.36;72.05
67641;SHT31;54434;50.096;20.082;2023-02-07T13:48:25;-0.40;72.43
67641;SHT31;54434;50.096;20.082;2023-02-07T13:51:15;-0.42;72.56
67641;SHT31;54434;50.096;20.082;2023-02-07T13:54:03;-0.45;72.70
67641;SHT31;54434;50.096;20.082;2023-02-07T13:57:03;-0.46;72.73
67641;SHT31;54434;50.096;20.082;2023-02-07T14:00:20;-0.50;72.76
67641;SHT31;54434;50.096;20.082;2023-02-07T14:02:59;-0.54;72.91
67641;SHT31;54434;50.096;20.082;2023-02-07T14:05:41;-0.57;72.88
67641;SHT31;54434;50.096;20.082;2023-02-07T14:08:23;-0.67;73.00
67641;SHT31;54434;50.096;20.082;2023-02-07T14:11:00;-0.71;73.24
67641;SHT31;54434;50.096;20.082;2023-02-07T14:14:14;-0.72;73.18
67641;SHT31;54434;50.096;20.082;2023-02-07T14:16:59;-0.81;73.25
67641;SHT31;54434;50.096;20.082;2023-02-07T14:19:52;-0.84;73.45
67641;SHT31;54434;50.096;20.082;2023-02-07T14:22:30;-0.88;73.36
67641;SHT31;54434;50.096;20.082;2023-02-07T14:25:40;-0.88;73.51
67641;SHT31;54434;50.096;20.082;2023-02-07T14:28:30;-0.89;73.36
67641;SHT31;54434;50.096;20.082;2023-02-07T14:31:31;-0.94;73.58
67641;SHT31;54434;50.096;20.082;2023-02-07T14:34:12;-0.95;73.60
67641;SHT31;54434;50.096;20.082;2023-02-07T14:36:51;-1.00;73.66
67641;SHT31;54434;50.096;20.082;2023-02-07T14:39:31;-1.00;73.80
67641;SHT31;54434;50.096;20.082;2023-02-07T14:42:17;-0.99;73.80
67641;SHT31;54434;50.096;20.082;2023-02-07T14:44:57;-1.01;73.93
67641;SHT31;54434;50.096;20.082;2023-02-07T14:47:35;-1.04;74.01
67641;SHT31;54434;50.096;20.082;2023-02-07T14:50:18;-1.07;74.09
67641;SHT31;54434;50.096;20.082;2023-02-07T14:53:02;-1.08;74.23
67641;SHT31;54434;50.096;20.082;2023-02-07T14:55:48;-1.10;74.30
67641;SHT31;54434;50.096;20.082;2023-02-07T14:58:33;-1.13;74.31
67641;SHT31;54434;50.096;20.082;2023-02-07T15:01:18;-1.15;74.44
67641;SHT31;54434;50.096;20.082;2023-02-07T15:04:02;-1.17;74.59
67641;SHT31;54434;50.096;20.082;2023-02-07T15:06:40;-1.18;74.62
67641;SHT31;54434;50.096;20.082;2023-02-07T15:09:22;-1.23;74.62
67641;SHT31;54434;50.096;20.082;2023-02-07T15:12:03;-1.23;74.74
67641;SHT31;54434;50.096;20.082;2023-02-07T15:14:57;-1.27;74.80
67641;SHT31;54434;50.096;20.082;2023-02-07T15:17:33;-1.32;74.92
67641;SHT31;54434;50.096;20.082;2023-02-07T15:20:17;-1.35;75.15
67641;SHT31;54434;50.096;20.082;2023-02-07T15:23:01;-1.33;75.23
67641;SHT31;54434;50.096;20.082;2023-02-07T15:25:40;-1.35;75.26
67641;SHT31;54434;50.096;20.082;2023-02-07T15:28:24;-1.38;75.37
67641;SHT31;54434;50.096;20.082;2023-02-07T15:31:04;-1.40;75.44
67641;SHT31;54434;50.096;20.082;2023-02-07T15:33:51;-1.43;75.64
67641;SHT31;54434;50.096;20.082;2023-02-07T15:36:32;-1.42;75.64
67641;SHT31;54434;50.096;20.082;2023-02-07T15:39:16;-1.41;75.64
67641;SHT31;54434;50.096;20.082;2023-02-07T15:41:55;-1.40;75.68
67641;SHT31;54434;50.096;20.082;2023-02-07T15:44:32;-1.36;75.66
67641;SHT31;54434;50.096;20.082;2023-02-07T15:47:34;-1.34;75.59
67641;SHT31;54434;50.096;20.082;2023-02-07T15:50:21;-1.30;75.56
67641;SHT31;54434;50.096;20.082;2023-02-07T15:53:01;-1.26;75.55
67641;SHT31;54434;50.096;20.082;2023-02-07T15:55:44;-1.15;75.47
67641;SHT31;54434;50.096;20.082;2023-02-07T15:58:24;-1.07;75.31
67641;SHT31;54434;50.096;20.082;2023-02-07T16:01:13;-1.01;75.22
67641;SHT31;54434;50.096;20.082;2023-02-07T16:03:56;-1.05;75.13
67641;SHT31;54434;50.096;20.082;2023-02-07T16:06:35;-1.05;75.20
67641;SHT31;54434;50.096;20.082;2023-02-07T16:09:39;-1.09;75.30
67641;SHT31;54434;50.096;20.082;2023-02-07T16:12:32;-1.11;75.38
67641;SHT31;54434;50.096;20.082;2023-02-07T16:15:28;-1.10;75.39
67641;SHT31;54434;50.096;20.082;2023-02-07T16:18:32;-1.14;75.33
67641;SHT31;54434;50.096;20.082;2023-02-07T16:21:13;-1.18;75.41
67641;SHT31;54434;50.096;20.082;2023-02-07T16:23:57;-1.22;75.48
67641;SHT31;54434;50.096;20.082;2023-02-07T16:26:40;-1.24;75.58
67641;SHT31;54434;50.096;20.082;2023-02-07T16:29:21;-1.27;75.70
67641;SHT31;54434;50.096;20.082;2023-02-07T16:31:58;-1.30;75.76
67641;SHT31;54434;50.096;20.082;2023-02-07T16:34:36;-1.29;75.82
67641;SHT31;54434;50.096;20.082;2023-02-07T16:37:29;-1.28;75.82
67641;SHT31;54434;50.096;20.082;2023-02-07T16:40:07;-1.29;75.81
67641;SHT31;54434;50.096;20.082;2023-02-07T16:42:46;-1.32;75.89
67641;SHT31;54434;50.096;20.082;2023-02-07T16:45:25;-1.32;76.00
67641;SHT31;54434;50.096;20.082;2023-02-07T16:48:04;-1.33;75.99
67641;SHT31;54434;50.096;20.082;2023-02-07T16:50:47;-1.31;76.00
67641;SHT31;54434;50.096;20.082;2023-02-07T16:53:23;-1.28;75.97
67641;SHT31;54434;50.096;20.082;2023-02-07T16:56:00;-1.23;75.85
67641;SHT31;54434;50.096;20.082;2023-02-07T16:58:38;-1.19;75.81